sensor_id;sensor_type;location;lat;lon;timestamp;temperature;humidity
36280;DHT22;22317;47.936;12.742;2023-07-29T00:01:40;15.50;62.00
36280;DHT22;22317;47.936;12.742;2023-07-29T00:04:07;15.50;62.20
36280;DHT22;22317;47.936;12.742;2023-07-29T00:06:34;15.40;62.10
36280;DHT22;22317;47.936;12.742;2023-07-29T00:09:01;15.40;62.10
36280;DHT22;22317;47.936;12.742;2023-07-29T00:11:26;15.40;62.20
36280;DHT22;22317;47.936;12.742;2023-07-29T00:13:52;15.40;62.30
36280;DHT22;22317;47.936;12.742;2023-07-29T00:16:18;15.40;62.40
36280;DHT22;22317;47.936;12.742;2023-07-29T00:18:50;15.40;62.40
36280;DHT22;22317;47.936;12.742;2023-07-29T00:21:16;15.40;62.50
36280;DHT22;22317;47.936;12.742;2023-07-29T00:23:42;15.40;62.40
36280;DHT22;22317;47.936;12.742;2023-07-29T00:26:08;15.40;62.50
36280;DHT22;22317;47.936;12.742;2023-07-29T00:28:33;15.40;62.40
36280;DHT22;22317;47.936;12.742;2023-07-29T00:30:59;15.40;62.50
36280;DHT22;22317;47.936;12.742;2023-07-29T00:33:26;15.40;62.50
36280;DHT22;22317;47.936;12.742;2023-07-29T00:35:52;15.40;62.60
36280;DHT22;22317;47.936;12.742;2023-07-29T00:38:18;15.40;62.70
36280;DHT22;22317;47.936;12.742;2023-07-29T00:40:44;15.40;62.60
36280;DHT22;22317;47.936;12.742;2023-07-29T00:43:09;15.40;62.60
36280;DHT22;22317;47.936;12.742;2023-07-29T00:45:36;15.50;62.50
36280;DHT22;22317;47.936;12.742;2023-07-29T00:48:02;15.40;62.50
36280;DHT22;22317;47.936;12.742;2023-07-29T00:50:30;15.40;62.60
36280;DHT22;22317;47.936;12.742;2023-07-29T00:52:59;15.50;62.60
36280;DHT22;22317;47.936;12.742;2023-07-29T00:55:25;15.50;62.50
36280;DHT22;22317;47.936;12.742;2023-07-29T00:57:54;15.50;62.60
36280;DHT22;22317;47.936;12.742;2023-07-29T01:00:21;15.50;62.60
36280;DHT22;22317;47.936;12.742;2023-07-29T01:02:46;15.50;62.50
36280;DHT22;22317;47.936;12.742;2023-07-29T01:05:14;15.40;62.50
36280;DHT22;22317;47.936;12.742;2023-07-29T01:13:10;15.40;63.00
36280;DHT22;22317;47.936;12.742;2023-07-29T01:15:58;15.50;63.10
36280;DHT22;22317;47.936;12.742;2023-07-29T01:18:31;15.50;63.10
36280;DHT22;22317;47.936;12.742;2023-07-29T01:21:02;15.50;62.90
36280;DHT22;22317;47.936;12.742;2023-07-29T01:23:33;15.60;62.90
36280;DHT22;22317;47.936;12.742;2023-07-29T01:25:59;15.60;62.90
36280;DHT22;22317;47.936;12.742;2023-07-29T01:28:25;15.60;62.80
36280;DHT22;22317;47.936;12.742;2023-07-29T01:33:57;15.60;62.90
36280;DHT22;22317;47.936;12.742;2023-07-29T01:36:27;15.60;62.80
36280;DHT22;22317;47.936;12.742;2023-07-29T01:38:54;15.70;62.80
36280;DHT22;22317;47.936;12.742;2023-07-29T01:41:22;15.70;62.80
36280;DHT22;22317;47.936;12.742;2023-07-29T01:43:50;15.70;62.80
36280;DHT22;22317;47.936;12.742;2023-07-29T01:46:16;15.70;62.70
36280;DHT22;22317;47.936;12.742;2023-07-29T01:48:42;15.70;62.70
36280;DHT22;22317;47.936;12.742;2023-07-29T01:51:10;15.70;62.60
36280;DHT22;22317;47.936;12.742;2023-07-29T01:53:37;15.70;62.60
36280;DHT22;22317;47.936;12.742;2023-07-29T01:56:03;15.70;62.60
36280;DHT22;22317;47.936;12.742;2023-07-29T01:58:29;15.70;62.60
36280;DHT22;22317;47.936;12.742;2023-07-29T02:00:55;15.60;62.60
36280;DHT22;22317;47.936;12.742;2023-07-29T02:03:20;15.60;62.60
36280;DHT22;22317;47.936;12.742;2023-07-29T02:05:46;15.60;62.70
36280;DHT22;22317;47.936;12.742;2023-07-29T02:08:12;15.60;62.80
36280;DHT22;22317;47.936;12.742;2023-07-29T02:10:38;15.50;62.60
36280;DHT22;22317;47.936;12.742;2023-07-29T02:13:03;15.50;62.60
36280;DHT22;22317;47.936;12.742;2023-07-29T02:15:29;15.50;62.70
36280;DHT22;22317;47.936;12.742;2023-07-29T02:17:55;15.50;62.70
36280;DHT22;22317;47.936;12.742;2023-07-29T02:20:21;15.40;62.70
36280;DHT22;22317;47.936;12.742;2023-07-29T02:22:47;15.40;62.90
36280;DHT22;22317;47.936;12.742;2023-07-29T02:25:14;15.40;62.90
36280;DHT22;22317;47.936;12.742;2023-07-29T02:27:40;15.30;62.90
36280;DHT22;22317;47.936;12.742;2023-07-29T02:30:06;15.30;62.90
36280;DHT22;22317;47.936;12.742;2023-07-29T02:32:32;15.20;62.90
36280;DHT22;22317;47.936;12.742;2023-07-29T02:34:58;15.20;63.10
36280;DHT22;22317;47.936;12.742;2023-07-29T02:37:24;15.10;63.00
36280;DHT22;22317;47.936;12.742;2023-07-29T02:39:50;15.10;63.00
36280;DHT22;22317;47.936;12.742;2023-07-29T02:42:15;15.10;63.10
36280;DHT22;22317;47.936;12.742;2023-07-29T02:44:41;15.00;63.10
36280;DHT22;22317;47.936;12.742;2023-07-29T02:47:07;15.00;63.30
36280;DHT22;22317;47.936;12.742;2023-07-29T02:49:33;15.00;63.30
36280;DHT22;22317;47.936;12.742;2023-07-29T02:51:59;15.00;63.40
36280;DHT22;22317;47.936;12.742;2023-07-29T02:54:25;15.00;63.40
36280;DHT22;22317;47.936;12.742;2023-07-29T02:56:51;14.90;63.40
36280;DHT22;22317;47.936;12.742;2023-07-29T02:59:16;14.90;63.40
36280;DHT22;22317;47.936;12.742;2023-07-29T03:01:42;14.90;63.40
36280;DHT22;22317;47.936;12.742;2023-07-29T03:04:08;14.90;63.30
36280;DHT22;22317;47.936;12.742;2023-07-29T03:06:34;14.80;63.20
36280;DHT22;22317;47.936;12.742;2023-07-29T03:09:00;14.70;63.10
36280;DHT22;22317;47.936;12.742;2023-07-29T03:11:26;14.70;63.30
36280;DHT22;22317;47.936;12.742;2023-07-29T03:13:52;14.60;63.50
36280;DHT22;22317;47.936;12.742;2023-07-29T03:16:18;14.60;63.60
36280;DHT22;22317;47.936;12.742;2023-07-29T03:18:52;14.60;63.70
36280;DHT22;22317;47.936;12.742;2023-07-29T03:21:17;14.60;63.80
36280;DHT22;22317;47.936;12.742;2023-07-29T03:23:43;14.60;63.90
36280;DHT22;22317;47.936;12.742;2023-07-29T03:26:09;14.70;64.10
36280;DHT22;22317;47.936;12.742;2023-07-29T03:28:42;14.70;64.10
36280;DHT22;22317;47.936;12.742;2023-07-29T03:31:09;14.70;64.10
36280;DHT22;22317;47.936;12.742;2023-07-29T03:33:35;14.70;63.90
36280;DHT22;22317;47.936;12.742;2023-07-29T03:36:01;14.70;63.90
36280;DHT22;22317;47.936;12.742;2023-07-29T03:38:27;14.70;63.90
36280;DHT22;22317;47.936;12.742;2023-07-29T03:40:53;14.70;63.90
36280;DHT22;22317;47.936;12.742;2023-07-29T03:43:19;14.70;63.80
36280;DHT22;22317;47.936;12.742;2023-07-29T03:45:45;14.70;63.80
36280;DHT22;22317;47.936;12.742;2023-07-29T03:48:11;14.70;63.90
36280;DHT22;22317;47.936;12.742;2023-07-29T03:50:37;14.70;63.90
36280;DHT22;22317;47.936;12.742;2023-07-29T03:53:03;14.70;63.90
36280;DHT22;22317;47.936;12.742;2023-07-29T03:55:30;14.70;64.00
36280;DHT22;22317;47.936;12.742;2023-07-29T03:57:57;14.70;64.10
36280;DHT22;22317;47.936;12.742;2023-07-29T04:00:23;14.70;64.20
36280;DHT22;22317;47.936;12.742;2023-07-29T04:02:49;14.80;64.00
36280;DHT22;22317;47.936;12.742;2023-07-29T04:07:57;14.80;64.00
36280;DHT22;22317;47.936;12.742;2023-07-29T04:10:23;14.80;63.90
36280;DHT22;22317;47.936;12.742;2023-07-29T04:12:48;14.80;63.80
36280;DHT22;22317;47.936;12.742;2023-07-29T04:15:14;14.70;63.70
36280;DHT22;22317;47.936;12.742;2023-07-29T04:17:41;14.70;63.70
36280;DHT22;22317;47.936;12.742;2023-07-29T04:20:07;14.70;63.80
36280;DHT22;22317;47.936;12.742;2023-07-29T04:22:33;14.70;63.90
36280;DHT22;22317;47.936;12.742;2023-07-29T04:25:00;14.70;64.00
36280;DHT22;22317;47.936;12.742;2023-07-29T04:27:26;14.70;64.20
36280;DHT22;22317;47.936;12.742;2023-07-29T04:29:52;14.80;64.30
36280;DHT22;22317;47.936;12.742;2023-07-29T04:32:17;14.80;64.20
36280;DHT22;22317;47.936;12.742;2023-07-29T04:34:44;14.80;64.20
36280;DHT22;22317;47.936;12.742;2023-07-29T04:37:10;14.80;64.20
36280;DHT22;22317;47.936;12.742;2023-07-29T04:39:36;14.90;64.30
36280;DHT22;22317;47.936;12.742;2023-07-29T04:42:03;14.90;64.40
36280;DHT22;22317;47.936;12.742;2023-07-29T04:44:28;15.00;64.60
36280;DHT22;22317;47.936;12.742;2023-07-29T04:46:54;15.10;64.70
36280;DHT22;22317;47.936;12.742;2023-07-29T04:49:20;15.20;64.60
36280;DHT22;22317;47.936;12.742;2023-07-29T04:51:48;15.20;64.50
36280;DHT22;22317;47.936;12.742;2023-07-29T04:54:14;15.20;64.50
36280;DHT22;22317;47.936;12.742;2023-07-29T04:56:42;15.30;64.40
36280;DHT22;22317;47.936;12.742;2023-07-29T04:59:08;15.30;64.40
36280;DHT22;22317;47.936;12.742;2023-07-29T05:01:34;15.30;64.40
36280;DHT22;22317;47.936;12.742;2023-07-29T05:04:00;15.40;64.40
36280;DHT22;22317;47.936;12.742;2023-07-29T05:06:26;15.40;64.60
36280;DHT22;22317;47.936;12.742;2023-07-29T05:08:51;15.50;64.50
36280;DHT22;22317;47.936;12.742;2023-07-29T05:11:17;15.60;64.50
36280;DHT22;22317;47.936;12.742;2023-07-29T05:13:43;15.60;64.40
36280;DHT22;22317;47.936;12.742;2023-07-29T05:16:10;15.60;64.30
36280;DHT22;22317;47.936;12.742;2023-07-29T05:18:36;15.70;64.40
36280;DHT22;22317;47.936;12.742;2023-07-29T05:21:02;15.80;64.50
36280;DHT22;22317;47.936;12.742;2023-07-29T05:23:28;15.90;64.50
36280;DHT22;22317;47.936;12.742;2023-07-29T05:25:54;16.00;64.50
36280;DHT22;22317;47.936;12.742;2023-07-29T05:28:19;16.00;64.40
36280;DHT22;22317;47.936;12.742;2023-07-29T05:30:45;16.10;64.30
36280;DHT22;22317;47.936;12.742;2023-07-29T05:33:11;16.10;64.10
36280;DHT22;22317;47.936;12.742;2023-07-29T05:35:38;16.20;64.00
36280;DHT22;22317;47.936;12.742;2023-07-29T05:38:05;16.20;63.90
36280;DHT22;22317;47.936;12.742;2023-07-29T05:40:33;16.30;63.90
36280;DHT22;22317;47.936;12.742;2023-07-29T05:42:59;16.40;63.60
36280;DHT22;22317;47.936;12.742;2023-07-29T05:45:25;16.40;63.40
36280;DHT22;22317;47.936;12.742;2023-07-29T05:47:50;16.50;63.50
36280;DHT22;22317;47.936;12.742;2023-07-29T05:50:19;16.60;63.50
36280;DHT22;22317;47.936;12.742;2023-07-29T05:52:44;16.70;63.40
36280;DHT22;22317;47.936;12.742;2023-07-29T05:55:10;16.80;64.10
36280;DHT22;22317;47.936;12.742;2023-07-29T05:57:36;16.80;63.20
36280;DHT22;22317;47.936;12.742;2023-07-29T06:00:02;16.90;63.10
36280;DHT22;22317;47.936;12.742;2023-07-29T06:02:38;17.00;62.80
36280;DHT22;22317;47.936;12.742;2023-07-29T06:05:07;17.00;62.80
36280;DHT22;22317;47.936;12.742;2023-07-29T06:07:33;17.10;63.00
36280;DHT22;22317;47.936;12.742;2023-07-29T06:09:59;17.20;63.00
36280;DHT22;22317;47.936;12.742;2023-07-29T06:12:26;17.20;62.80
36280;DHT22;22317;47.936;12.742;2023-07-29T06:14:52;17.30;62.80
36280;DHT22;22317;47.936;12.742;2023-07-29T06:17:18;17.40;62.70
36280;DHT22;22317;47.936;12.742;2023-07-29T06:19:46;17.50;62.60
36280;DHT22;22317;47.936;12.742;2023-07-29T06:22:14;17.60;62.50
36280;DHT22;22317;47.936;12.742;2023-07-29T06:24:39;17.70;62.40
36280;DHT22;22317;47.936;12.742;2023-07-29T06:27:06;17.80;62.40
36280;DHT22;22317;47.936;12.742;2023-07-29T06:29:35;17.90;62.50
36280;DHT22;22317;47.936;12.742;2023-07-29T06:32:01;18.10;62.30
36280;DHT22;22317;47.936;12.742;2023-07-29T06:34:27;18.20;62.10
36280;DHT22;22317;47.936;12.742;2023-07-29T06:36:52;18.30;61.70
36280;DHT22;22317;47.936;12.742;2023-07-29T06:39:19;18.40;61.40
36280;DHT22;22317;47.936;12.742;2023-07-29T06:41:45;18.40;61.00
36280;DHT22;22317;47.936;12.742;2023-07-29T06:44:12;18.50;60.80
36280;DHT22;22317;47.936;12.742;2023-07-29T06:46:38;18.50;60.60
36280;DHT22;22317;47.936;12.742;2023-07-29T06:49:04;18.50;60.20
36280;DHT22;22317;47.936;12.742;2023-07-29T06:51:30;18.60;60.10
36280;DHT22;22317;47.936;12.742;2023-07-29T06:54:00;18.70;60.10
36280;DHT22;22317;47.936;12.742;2023-07-29T06:56:25;18.80;60.20
36280;DHT22;22317;47.936;12.742;2023-07-29T06:58:52;18.90;60.20
36280;DHT22;22317;47.936;12.742;2023-07-29T07:01:18;19.10;60.20
36280;DHT22;22317;47.936;12.742;2023-07-29T07:03:44;19.20;60.30
36280;DHT22;22317;47.936;12.742;2023-07-29T07:06:09;19.40;60.10
36280;DHT22;22317;47.936;12.742;2023-07-29T07:08:35;19.50;59.90
36280;DHT22;22317;47.936;12.742;2023-07-29T07:11:02;19.60;59.60
36280;DHT22;22317;47.936;12.742;2023-07-29T07:13:28;19.70;59.40
36280;DHT22;22317;47.936;12.742;2023-07-29T07:15:57;19.60;59.00
36280;DHT22;22317;47.936;12.742;2023-07-29T07:18:23;19.60;58.90
36280;DHT22;22317;47.936;12.742;2023-07-29T07:20:49;19.70;59.00
36280;DHT22;22317;47.936;12.742;2023-07-29T07:23:16;19.70;58.80
36280;DHT22;22317;47.936;12.742;2023-07-29T07:25:42;19.80;58.70
36280;DHT22;22317;47.936;12.742;2023-07-29T07:28:08;19.80;58.50
36280;DHT22;22317;47.936;12.742;2023-07-29T07:30:34;19.80;58.50
36280;DHT22;22317;47.936;12.742;2023-07-29T07:33:00;19.80;58.40
36280;DHT22;22317;47.936;12.742;2023-07-29T07:35:27;19.90;58.40
36280;DHT22;22317;47.936;12.742;2023-07-29T07:37:52;19.90;58.20
36280;DHT22;22317;47.936;12.742;2023-07-29T07:40:18;19.90;58.00
36280;DHT22;22317;47.936;12.742;2023-07-29T07:42:46;19.90;57.80
36280;DHT22;22317;47.936;12.742;2023-07-29T07:45:13;19.90;57.90
36280;DHT22;22317;47.936;12.742;2023-07-29T07:47:39;19.90;58.00
36280;DHT22;22317;47.936;12.742;2023-07-29T07:50:04;20.00;58.00
36280;DHT22;22317;47.936;12.742;2023-07-29T07:52:32;20.10;57.90
36280;DHT22;22317;47.936;12.742;2023-07-29T07:54:57;20.10;58.00
36280;DHT22;22317;47.936;12.742;2023-07-29T07:57:23;20.10;57.80
36280;DHT22;22317;47.936;12.742;2023-07-29T07:59:49;20.10;57.60
36280;DHT22;22317;47.936;12.742;2023-07-29T08:02:16;20.10;57.30
36280;DHT22;22317;47.936;12.742;2023-07-29T08:04:41;19.90;56.90
36280;DHT22;22317;47.936;12.742;2023-07-29T08:07:07;19.90;56.70
36280;DHT22;22317;47.936;12.742;2023-07-29T08:09:33;19.80;56.30
36280;DHT22;22317;47.936;12.742;2023-07-29T08:12:00;19.80;56.10
36280;DHT22;22317;47.936;12.742;2023-07-29T08:14:25;19.70;56.00
36280;DHT22;22317;47.936;12.742;2023-07-29T08:16:52;19.60;55.80
36280;DHT22;22317;47.936;12.742;2023-07-29T08:19:18;19.60;55.40
36280;DHT22;22317;47.936;12.742;2023-07-29T08:21:45;19.50;55.30
36280;DHT22;22317;47.936;12.742;2023-07-29T08:24:11;19.40;55.50
36280;DHT22;22317;47.936;12.742;2023-07-29T08:26:36;19.30;55.20
36280;DHT22;22317;47.936;12.742;2023-07-29T08:29:02;19.20;55.20
36280;DHT22;22317;47.936;12.742;2023-07-29T08:31:28;19.10;55.80
36280;DHT22;22317;47.936;12.742;2023-07-29T08:33:54;19.10;55.60
36280;DHT22;22317;47.936;12.742;2023-07-29T08:36:19;19.00;55.60
36280;DHT22;22317;47.936;12.742;2023-07-29T08:38:45;19.00;55.70
36280;DHT22;22317;47.936;12.742;2023-07-29T08:41:19;19.00;55.70
36280;DHT22;22317;47.936;12.742;2023-07-29T08:43:52;19.00;55.90
36280;DHT22;22317;47.936;12.742;2023-07-29T08:46:19;19.00;56.10
36280;DHT22;22317;47.936;12.742;2023-07-29T08:48:45;19.10;56.10
36280;DHT22;22317;47.936;12.742;2023-07-29T08:51:12;19.10;56.10
36280;DHT22;22317;47.936;12.742;2023-07-29T08:53:40;19.10;56.20
36280;DHT22;22317;47.936;12.742;2023-07-29T08:56:07;19.20;56.30
36280;DHT22;22317;47.936;12.742;2023-07-29T08:58:33;19.30;56.60
36280;DHT22;22317;47.936;12.742;2023-07-29T09:00:59;19.40;56.80
36280;DHT22;22317;47.936;12.742;2023-07-29T09:03:27;19.60;57.10
36280;DHT22;22317;47.936;12.742;2023-07-29T09:05:55;19.80;57.20
36280;DHT22;22317;47.936;12.742;2023-07-29T09:08:24;19.90;57.20
36280;DHT22;22317;47.936;12.742;2023-07-29T09:10:51;20.00;57.30
36280;DHT22;22317;47.936;12.742;2023-07-29T09:13:17;20.20;57.20
36280;DHT22;22317;47.936;12.742;2023-07-29T09:15:43;20.30;56.90
36280;DHT22;22317;47.936;12.742;2023-07-29T09:18:17;20.50;56.50
36280;DHT22;22317;47.936;12.742;2023-07-29T09:20:49;20.60;56.30
36280;DHT22;22317;47.936;12.742;2023-07-29T09:23:16;20.70;55.80
36280;DHT22;22317;47.936;12.742;2023-07-29T09:25:43;20.70;55.50
36280;DHT22;22317;47.936;12.742;2023-07-29T09:28:16;20.80;55.10
36280;DHT22;22317;47.936;12.742;2023-07-29T09:30:44;20.80;54.80
36280;DHT22;22317;47.936;12.742;2023-07-29T09:33:10;20.80;54.80
36280;DHT22;22317;47.936;12.742;2023-07-29T09:35:37;20.80;54.80
36280;DHT22;22317;47.936;12.742;2023-07-29T09:38:04;20.90;54.80
36280;DHT22;22317;47.936;12.742;2023-07-29T09:40:37;20.90;55.00
36280;DHT22;22317;47.936;12.742;2023-07-29T09:43:05;20.90;55.10
36280;DHT22;22317;47.936;12.742;2023-07-29T09:45:34;20.90;55.10
36280;DHT22;22317;47.936;12.742;2023-07-29T09:48:00;20.80;55.20
36280;DHT22;22317;47.936;12.742;2023-07-29T09:50:27;20.90;55.40
36280;DHT22;22317;47.936;12.742;2023-07-29T09:52:54;20.80;55.50
36280;DHT22;22317;47.936;12.742;2023-07-29T09:55:24;20.80;55.80
36280;DHT22;22317;47.936;12.742;2023-07-29T09:57:57;20.90;56.20
36280;DHT22;22317;47.936;12.742;2023-07-29T10:00:27;21.00;56.40
36280;DHT22;22317;47.936;12.742;2023-07-29T10:02:53;21.00;56.50
36280;DHT22;22317;47.936;12.742;2023-07-29T10:05:21;21.10;56.60
36280;DHT22;22317;47.936;12.742;2023-07-29T10:07:49;21.20;56.60
36280;DHT22;22317;47.936;12.742;2023-07-29T10:10:15;21.30;56.80
36280;DHT22;22317;47.936;12.742;2023-07-29T10:12:42;21.40;56.80
36280;DHT22;22317;47.936;12.742;2023-07-29T10:15:10;21.40;56.60
36280;DHT22;22317;47.936;12.742;2023-07-29T10:17:37;21.60;56.60
36280;DHT22;22317;47.936;12.742;2023-07-29T10:20:04;21.70;56.60
36280;DHT22;22317;47.936;12.742;2023-07-29T10:22:37;21.80;56.60
36280;DHT22;22317;47.936;12.742;2023-07-29T10:25:08;22.00;56.60
36280;DHT22;22317;47.936;12.742;2023-07-29T10:27:54;22.20;56.50
36280;DHT22;22317;47.936;12.742;2023-07-29T10:30:23;22.40;56.00
36280;DHT22;22317;47.936;12.742;2023-07-29T10:32:52;22.50;55.70
36280;DHT22;22317;47.936;12.742;2023-07-29T10:35:18;22.60;55.20
36280;DHT22;22317;47.936;12.742;2023-07-29T10:37:44;22.70;54.90
36280;DHT22;22317;47.936;12.742;2023-07-29T10:40:11;22.90;54.80
36280;DHT22;22317;47.936;12.742;2023-07-29T10:42:38;23.10;54.70
36280;DHT22;22317;47.936;12.742;2023-07-29T10:45:20;23.40;54.60
36280;DHT22;22317;47.936;12.742;2023-07-29T10:47:48;23.70;54.00
36280;DHT22;22317;47.936;12.742;2023-07-29T10:50:21;23.90;53.20
36280;DHT22;22317;47.936;12.742;2023-07-29T10:52:51;24.10;52.30
36280;DHT22;22317;47.936;12.742;2023-07-29T10:55:28;24.30;52.20
36280;DHT22;22317;47.936;12.742;2023-07-29T10:58:13;24.50;51.70
36280;DHT22;22317;47.936;12.742;2023-07-29T11:00:41;24.70;51.10
36280;DHT22;22317;47.936;12.742;2023-07-29T11:03:09;24.90;51.00
36280;DHT22;22317;47.936;12.742;2023-07-29T11:05:52;25.10;50.50
36280;DHT22;22317;47.936;12.742;2023-07-29T11:08:36;25.20;49.50
36280;DHT22;22317;47.936;12.742;2023-07-29T11:11:03;25.30;49.50
36280;DHT22;22317;47.936;12.742;2023-07-29T11:13:30;25.50;52.10
36280;DHT22;22317;47.936;12.742;2023-07-29T11:30:49;26.90;71.70
36280;DHT22;22317;47.936;12.742;2023-07-29T11:33:18;27.00;68.70
36280;DHT22;22317;47.936;12.742;2023-07-29T11:35:43;27.00;66.70
36280;DHT22;22317;47.936;12.742;2023-07-29T11:38:15;27.00;66.80
36280;DHT22;22317;47.936;12.742;2023-07-29T11:40:41;27.00;65.70
36280;DHT22;22317;47.936;12.742;2023-07-29T11:43:08;27.10;64.20
36280;DHT22;22317;47.936;12.742;2023-07-29T11:45:34;27.00;61.90
36280;DHT22;22317;47.936;12.742;2023-07-29T11:48:03;27.00;60.60
36280;DHT22;22317;47.936;12.742;2023-07-29T11:50:28;26.80;59.80
36280;DHT22;22317;47.936;12.742;2023-07-29T11:52:54;26.70;59.50
36280;DHT22;22317;47.936;12.742;2023-07-29T11:55:21;26.70;59.10
36280;DHT22;22317;47.936;12.742;2023-07-29T11:57:50;26.60;58.30
36280;DHT22;22317;47.936;12.742;2023-07-29T12:00:19;26.60;58.00
36280;DHT22;22317;47.936;12.742;2023-07-29T12:02:48;26.70;57.90
36280;DHT22;22317;47.936;12.742;2023-07-29T12:05:15;26.70;57.20
36280;DHT22;22317;47.936;12.742;2023-07-29T12:07:42;26.70;56.80
36280;DHT22;22317;47.936;12.742;2023-07-29T12:10:09;26.60;56.50
36280;DHT22;22317;47.936;12.742;2023-07-29T12:12:55;26.60;56.30
36280;DHT22;22317;47.936;12.742;2023-07-29T12:15:26;26.60;55.90
36280;DHT22;22317;47.936;12.742;2023-07-29T12:17:57;26.60;55.70
36280;DHT22;22317;47.936;12.742;2023-07-29T12:20:25;26.70;55.80
36280;DHT22;22317;47.936;12.742;2023-07-29T12:22:56;26.60;56.10
36280;DHT22;22317;47.936;12.742;2023-07-29T12:25:22;26.70;55.90
36280;DHT22;22317;47.936;12.742;2023-07-29T12:27:49;26.70;56.20
36280;DHT22;22317;47.936;12.742;2023-07-29T12:30:16;26.80;56.10
36280;DHT22;22317;47.936;12.742;2023-07-29T12:32:46;26.90;55.90
36280;DHT22;22317;47.936;12.742;2023-07-29T12:35:12;27.00;55.80
36280;DHT22;22317;47.936;12.742;2023-07-29T12:37:37;27.00;55.10
36280;DHT22;22317;47.936;12.742;2023-07-29T12:40:05;26.80;55.10
36280;DHT22;22317;47.936;12.742;2023-07-29T12:42:32;26.80;54.60
36280;DHT22;22317;47.936;12.742;2023-07-29T12:44:59;26.70;54.30
36280;DHT22;22317;47.936;12.742;2023-07-29T12:47:27;26.50;54.00
36280;DHT22;22317;47.936;12.742;2023-07-29T12:49:53;26.30;53.80
36280;DHT22;22317;47.936;12.742;2023-07-29T12:52:19;26.10;53.60
36280;DHT22;22317;47.936;12.742;2023-07-29T12:54:45;25.90;53.50
36280;DHT22;22317;47.936;12.742;2023-07-29T12:57:11;25.80;53.90
36280;DHT22;22317;47.936;12.742;2023-07-29T12:59:38;25.80;54.10
36280;DHT22;22317;47.936;12.742;2023-07-29T13:02:04;25.90;54.20
36280;DHT22;22317;47.936;12.742;2023-07-29T13:04:30;25.90;54.40
36280;DHT22;22317;47.936;12.742;2023-07-29T13:06:55;26.30;54.50
36280;DHT22;22317;47.936;12.742;2023-07-29T13:09:21;26.50;54.40
36280;DHT22;22317;47.936;12.742;2023-07-29T13:11:47;26.70;54.40
36280;DHT22;22317;47.936;12.742;2023-07-29T13:14:13;26.90;53.70
36280;DHT22;22317;47.936;12.742;2023-07-29T13:16:39;27.00;53.60
36280;DHT22;22317;47.936;12.742;2023-07-29T13:19:04;27.10;53.10
36280;DHT22;22317;47.936;12.742;2023-07-29T13:21:30;27.10;52.80
36280;DHT22;22317;47.936;12.742;2023-07-29T13:23:56;27.00;52.60
36280;DHT22;22317;47.936;12.742;2023-07-29T13:26:23;26.90;52.30
36280;DHT22;22317;47.936;12.742;2023-07-29T13:28:48;26.60;52.50
36280;DHT22;22317;47.936;12.742;2023-07-29T13:31:14;26.60;52.40
36280;DHT22;22317;47.936;12.742;2023-07-29T13:33:40;26.50;52.70
36280;DHT22;22317;47.936;12.742;2023-07-29T13:36:06;26.40;52.70
36280;DHT22;22317;47.936;12.742;2023-07-29T13:38:33;26.40;53.00
36280;DHT22;22317;47.936;12.742;2023-07-29T13:40:59;26.40;53.20
36280;DHT22;22317;47.936;12.742;2023-07-29T13:43:25;26.40;53.20
36280;DHT22;22317;47.936;12.742;2023-07-29T13:45:51;26.40;53.30
36280;DHT22;22317;47.936;12.742;2023-07-29T13:48:17;26.40;53.10
36280;DHT22;22317;47.936;12.742;2023-07-29T13:50:43;26.50;53.20
36280;DHT22;22317;47.936;12.742;2023-07-29T13:53:10;26.40;53.10
36280;DHT22;22317;47.936;12.742;2023-07-29T13:55:37;26.30;53.00
36280;DHT22;22317;47.936;12.742;2023-07-29T13:58:03;26.30;53.30
36280;DHT22;22317;47.936;12.742;2023-07-29T14:00:28;26.30;53.00
36280;DHT22;22317;47.936;12.742;2023-07-29T14:02:54;26.30;53.50
36280;DHT22;22317;47.936;12.742;2023-07-29T14:05:20;26.40;53.70
36280;DHT22;22317;47.936;12.742;2023-07-29T14:07:46;26.50;54.00
36280;DHT22;22317;47.936;12.742;2023-07-29T14:10:12;26.70;54.10
36280;DHT22;22317;47.936;12.742;2023-07-29T14:12:39;26.80;53.90
36280;DHT22;22317;47.936;12.742;2023-07-29T14:15:05;27.10;53.90
36280;DHT22;22317;47.936;12.742;2023-07-29T14:17:32;27.20;53.80
36280;DHT22;22317;47.936;12.742;2023-07-29T14:19:58;27.10;53.10
36280;DHT22;22317;47.936;12.742;2023-07-29T14:22:24;27.00;52.60
36280;DHT22;22317;47.936;12.742;2023-07-29T14:24:49;26.70;52.20
36280;DHT22;22317;47.936;12.742;2023-07-29T14:27:15;26.30;52.20
36280;DHT22;22317;47.936;12.742;2023-07-29T14:29:44;26.20;52.50
36280;DHT22;22317;47.936;12.742;2023-07-29T14:32:10;25.80;52.60
36280;DHT22;22317;47.936;12.742;2023-07-29T14:34:36;25.50;53.50
36280;DHT22;22317;47.936;12.742;2023-07-29T14:37:01;25.20;52.90
36280;DHT22;22317;47.936;12.742;2023-07-29T14:39:28;24.90;53.30
36280;DHT22;22317;47.936;12.742;2023-07-29T14:41:54;24.70;53.80
36280;DHT22;22317;47.936;12.742;2023-07-29T14:44:21;24.40;54.50
36280;DHT22;22317;47.936;12.742;2023-07-29T14:46:46;24.20;55.00
36280;DHT22;22317;47.936;12.742;2023-07-29T14:49:12;24.00;55.10
36280;DHT22;22317;47.936;12.742;2023-07-29T14:51:38;23.90;55.20
36280;DHT22;22317;47.936;12.742;2023-07-29T14:54:04;23.70;55.90
36280;DHT22;22317;47.936;12.742;2023-07-29T14:56:29;23.60;56.00
36280;DHT22;22317;47.936;12.742;2023-07-29T14:58:55;23.50;55.90
36280;DHT22;22317;47.936;12.742;2023-07-29T15:01:21;23.30;56.00
36280;DHT22;22317;47.936;12.742;2023-07-29T15:03:46;23.20;56.30
36280;DHT22;22317;47.936;12.742;2023-07-29T15:06:12;23.00;56.80
36280;DHT22;22317;47.936;12.742;2023-07-29T15:08:38;23.00;57.20
36280;DHT22;22317;47.936;12.742;2023-07-29T15:11:04;22.70;57.40
36280;DHT22;22317;47.936;12.742;2023-07-29T15:13:30;22.50;57.50
36280;DHT22;22317;47.936;12.742;2023-07-29T15:15:56;22.20;57.80
36280;DHT22;22317;47.936;12.742;2023-07-29T15:18:21;22.10;58.30
36280;DHT22;22317;47.936;12.742;2023-07-29T15:20:47;22.00;58.60
36280;DHT22;22317;47.936;12.742;2023-07-29T15:23:13;21.80;59.50
36280;DHT22;22317;47.936;12.742;2023-07-29T15:25:41;21.70;59.00
36280;DHT22;22317;47.936;12.742;2023-07-29T15:28:06;21.60;59.70
36280;DHT22;22317;47.936;12.742;2023-07-29T15:30:36;21.50;59.30
36280;DHT22;22317;47.936;12.742;2023-07-29T15:33:03;21.30;59.80
36280;DHT22;22317;47.936;12.742;2023-07-29T15:35:29;21.20;60.00
36280;DHT22;22317;47.936;12.742;2023-07-29T15:37:54;21.10;60.50
36280;DHT22;22317;47.936;12.742;2023-07-29T15:40:20;21.00;60.60